createdAt,value
2022-08-05T00:01:20.302Z,0.00
2022-08-05T00:02:41.046Z,0.00
2022-08-05T00:03:51.064Z,0.00
2022-08-05T00:06:51.718Z,0.00
2022-08-05T00:08:58.647Z,0.00
2022-08-05T00:10:06.361Z,0.00
2022-08-05T00:12:24.285Z,0.00
2022-08-05T00:13:58.686Z,0.00
2022-08-05T00:15:56.229Z,0.00
2022-08-05T00:18:21.873Z,0.00
2022-08-05T00:19:33.386Z,0.00
2022-08-05T00:20:47.728Z,0.00
2022-08-05T00:22:23.540Z,0.00
2022-08-05T00:24:37.113Z,0.00
2022-08-05T00:26:07.320Z,0.00
2022-08-05T00:28:07.790Z,0.00
2022-08-05T00:29:18.847Z,0.00
2022-08-05T00:30:46.792Z,0.00
2022-08-05T00:35:13.048Z,0.00
2022-08-05T00:37:57.179Z,0.00
2022-08-05T00:39:05.131Z,0.00
2022-08-05T00:41:51.700Z,0.00
2022-08-05T00:43:07.633Z,0.00
2022-08-05T00:44:18.503Z,0.00
2022-08-05T00:46:12.704Z,0.00
2022-08-05T00:48:05.232Z,0.00
2022-08-05T00:49:25.210Z,0.00
2022-08-05T00:51:57.683Z,0.00
2022-08-05T00:54:02.770Z,0.00
2022-08-05T00:55:07.217Z,0.00
2022-08-05T00:57:08.632Z,0.00
2022-08-05T00:58:33.299Z,0.00
2022-08-05T00:59:50.337Z,0.00
2022-08-05T01:00:45.045Z,0.00
2022-08-05T01:02:14.370Z,0.00
2022-08-05T01:03:39.740Z,0.00
2022-08-05T01:05:39.858Z,0.00
2022-08-05T01:07:05.097Z,0.00
2022-08-05T01:09:14.388Z,0.00
2022-08-05T01:11:09.355Z,0.00
2022-08-05T01:12:41.068Z,0.00
2022-08-05T01:14:40.669Z,0.00
2022-08-05T01:16:57.921Z,0.00
2022-08-05T01:18:21.281Z,0.00
2022-08-05T01:19:30.421Z,0.00
2022-08-05T01:22:02.843Z,0.00
2022-08-05T01:23:34.984Z,0.00
2022-08-05T01:24:50.286Z,0.00
2022-08-05T01:26:48.613Z,0.00
2022-08-05T01:28:14.421Z,0.00
2022-08-05T01:29:28.629Z,0.00
2022-08-05T01:31:19.645Z,0.00
2022-08-05T01:32:33.393Z,0.00
2022-08-05T01:33:48.906Z,0.00
2022-08-05T01:36:18.367Z,0.00
2022-08-05T01:37:50.226Z,0.00
2022-08-05T01:39:01.498Z,0.00
2022-08-05T01:41:07.010Z,0.00
2022-08-05T01:42:15.410Z,0.00
2022-08-05T01:43:33.620Z,0.00
2022-08-05T01:45:27.654Z,0.00
2022-08-05T01:47:12.325Z,0.00
2022-08-05T01:48:22.249Z,0.00
2022-08-05T01:50:56.751Z,0.00
2022-08-05T01:52:23.339Z,0.00
2022-08-05T01:54:07.783Z,0.00
2022-08-05T01:56:00.745Z,0.00
2022-08-05T01:59:09.481Z,0.00
2022-08-05T02:00:49.389Z,0.00
2022-08-05T02:02:06.208Z,0.00
2022-08-05T02:03:40.421Z,0.00
2022-08-05T02:05:29.173Z,0.00
2022-08-05T02:07:11.822Z,0.00
2022-08-05T02:09:06.335Z,0.00
2022-08-05T02:10:52.761Z,0.00
2022-08-05T02:12:10.488Z,0.00
2022-08-05T02:13:53.225Z,0.00
2022-08-05T02:15:55.789Z,0.00
2022-08-05T02:17:04.315Z,0.00
2022-08-05T02:19:07.162Z,0.00
2022-08-05T02:20:59.010Z,0.00
2022-08-05T02:22:25.324Z,0.00
2022-08-05T02:23:33.514Z,0.00
2022-08-05T02:25:18.586Z,0.00
2022-08-05T02:26:28.367Z,0.00
2022-08-05T02:28:14.707Z,0.00
2022-08-05T02:30:34.452Z,0.00
2022-08-05T02:31:48.712Z,0.00
2022-08-05T02:33:03.527Z,0.00
2022-08-05T02:35:28.186Z,0.00
2022-08-05T02:36:46.361Z,0.00
2022-08-05T02:38:00.344Z,0.00
2022-08-05T02:40:02.759Z,0.00
2022-08-05T02:41:22.762Z,0.00
2022-08-05T02:42:58.494Z,0.00
2022-08-05T02:44:42.679Z,0.00
2022-08-05T02:46:25.440Z,0.00
2022-08-05T02:48:17.756Z,0.00
2022-08-05T02:50:06.577Z,0.00
2022-08-05T02:51:14.180Z,0.00
2022-08-05T02:52:47.666Z,0.00
2022-08-05T02:55:10.877Z,0.00
2022-08-05T02:56:30.184Z,0.00
2022-08-05T02:58:51.629Z,0.00
2022-08-05T03:00:46.110Z,0.00
2022-08-05T03:01:50.808Z,0.00
2022-08-05T03:02:56.059Z,0.00
2022-08-05T03:05:10.208Z,0.00
2022-08-05T03:08:29.662Z,0.00
2022-08-05T03:10:03.019Z,0.00
2022-08-05T03:12:28.573Z,0.00
2022-08-05T03:14:08.542Z,0.00
2022-08-05T03:15:24.454Z,0.00
2022-08-05T03:17:09.014Z,0.00
2022-08-05T03:18:30.080Z,0.00
2022-08-05T03:20:11.554Z,0.00
2022-08-05T03:22:31.998Z,0.00
2022-08-05T03:23:45.644Z,0.00
2022-08-05T03:26:30.193Z,0.00
2022-08-05T03:28:31.064Z,0.00
2022-08-05T03:30:18.249Z,0.00
2022-08-05T03:32:08.732Z,0.00
2022-08-05T03:34:08.075Z,0.00
2022-08-05T03:35:24.184Z,0.00
2022-08-05T03:36:47.414Z,0.00
2022-08-05T03:38:44.686Z,0.00
2022-08-05T03:40:37.781Z,0.00
2022-08-05T03:42:03.937Z,0.00
2022-08-05T03:44:46.200Z,0.00
2022-08-05T03:46:20.295Z,0.00
2022-08-05T03:47:41.912Z,0.00
2022-08-05T03:49:57.358Z,0.00
2022-08-05T03:52:38.146Z,0.00
2022-08-05T03:57:00.038Z,0.00
2022-08-05T03:58:58.728Z,0.00
2022-08-05T04:00:52.577Z,0.00
2022-08-05T04:02:17.348Z,0.00
2022-08-05T04:04:16.793Z,0.00
2022-08-05T04:06:14.286Z,0.00
2022-08-05T04:07:21.377Z,0.00
2022-08-05T04:08:59.819Z,0.00
2022-08-05T04:11:06.569Z,0.00
2022-08-05T04:14:01.950Z,0.00
2022-08-05T04:16:25.346Z,0.00
2022-08-05T04:18:07.867Z,0.00
2022-08-05T04:19:23.426Z,0.00
2022-08-05T04:21:07.104Z,0.00
2022-08-05T04:22:45.944Z,0.00
2022-08-05T04:24:52.305Z,0.00
2022-08-05T04:27:09.532Z,0.00
2022-08-05T04:28:56.966Z,0.00
2022-08-05T04:30:09.486Z,0.00
2022-08-05T04:32:03.056Z,0.00
2022-08-05T04:33:07.654Z,0.00
2022-08-05T04:35:03.267Z,0.00
2022-08-05T04:38:45.776Z,0.00
2022-08-05T04:40:04.134Z,0.00
2022-08-05T04:41:21.638Z,0.00
2022-08-05T04:43:22.224Z,0.00
2022-08-05T04:44:47.784Z,0.00
2022-08-05T04:46:28.430Z,0.00
2022-08-05T04:48:32.764Z,0.00
2022-08-05T04:51:11.142Z,0.00
2022-08-05T04:52:24.565Z,0.00
2022-08-05T04:54:15.399Z,0.00
2022-08-05T04:56:42.411Z,0.00
2022-08-05T04:58:02.629Z,0.00
2022-08-05T05:00:47.005Z,0.00
2022-08-05T05:03:09.361Z,0.29
2022-08-05T05:04:15.831Z,0.00
2022-08-05T05:07:23.958Z,0.29
2022-08-05T05:09:01.416Z,0.29
2022-08-05T05:10:13.563Z,0.29
2022-08-05T05:12:20.604Z,0.29
2022-08-05T05:13:43.328Z,0.29
2022-08-05T05:15:10.843Z,0.29
2022-08-05T05:17:56.420Z,0.29
2022-08-05T05:19:50.081Z,0.29
2022-08-05T05:20:58.905Z,0.29
2022-08-05T05:22:59.329Z,0.29
2022-08-05T05:25:32.801Z,0.29
2022-08-05T05:27:02.486Z,0.29
2022-08-05T05:29:20.393Z,0.29
2022-08-05T05:30:55.565Z,0.29
2022-08-05T05:32:04.398Z,0.29
2022-08-05T05:34:15.664Z,0.29
2022-08-05T05:35:34.225Z,0.29
2022-08-05T05:36:51.373Z,0.39
2022-08-05T05:38:49.636Z,0.39
2022-08-05T05:40:02.144Z,0.29
2022-08-05T05:41:18.506Z,0.39
2022-08-05T05:43:14.223Z,0.29
2022-08-05T05:45:05.194Z,0.29
2022-08-05T05:46:27.513Z,0.39
2022-08-05T05:48:47.722Z,0.39
2022-08-05T05:50:02.263Z,0.49
2022-08-05T05:51:27.817Z,0.49
2022-08-05T05:53:58.306Z,0.68
2022-08-05T05:55:24.990Z,0.68
2022-08-05T05:57:04.146Z,0.68
2022-08-05T05:59:21.419Z,0.59
2022-08-05T06:00:52.081Z,0.59
2022-08-05T06:02:32.498Z,0.59
2022-08-05T06:04:33.386Z,0.68
2022-08-05T06:06:23.877Z,0.78
2022-08-05T06:08:01.173Z,0.68
2022-08-05T06:09:17.024Z,0.59
2022-08-05T06:11:25.951Z,0.59
2022-08-05T06:12:32.909Z,0.59
2022-08-05T06:14:01.099Z,0.59
2022-08-05T06:16:54.975Z,0.68
2022-08-05T06:18:30.974Z,0.78
2022-08-05T06:20:07.618Z,0.78
2022-08-05T06:22:12.426Z,0.78
2022-08-05T06:23:15.504Z,0.88
2022-08-05T06:24:31.400Z,0.88
2022-08-05T06:28:21.232Z,0.88
2022-08-05T06:30:27.320Z,0.88
2022-08-05T06:31:56.275Z,0.88
2022-08-05T06:34:33.433Z,0.88
2022-08-05T06:37:03.298Z,0.98
2022-08-05T06:38:58.486Z,1.17
2022-08-05T06:40:55.971Z,1.66
2022-08-05T06:42:04.926Z,1.46
2022-08-05T06:43:59.693Z,1.56
2022-08-05T06:46:21.179Z,1.56
2022-08-05T06:49:07.673Z,1.46
2022-08-05T06:50:34.823Z,1.56
2022-08-05T06:52:37.022Z,1.86
2022-08-05T06:54:18.155Z,1.86
2022-08-05T06:55:22.015Z,1.86
2022-08-05T06:58:42.989Z,1.86
2022-08-05T07:00:53.035Z,1.86
2022-08-05T07:02:09.940Z,2.15
2022-08-05T07:03:22.260Z,2.05
2022-08-05T07:05:31.932Z,1.66
2022-08-05T07:06:45.817Z,1.56
2022-08-05T07:08:16.769Z,2.05
2022-08-05T07:10:22.832Z,1.37
2022-08-05T07:12:00.243Z,1.27
2022-08-05T07:13:15.584Z,0.98
2022-08-05T07:16:07.641Z,0.98
2022-08-05T07:18:59.195Z,0.98
2022-08-05T07:21:04.780Z,0.98
2022-08-05T07:23:32.159Z,0.98
2022-08-05T07:25:23.945Z,1.17
2022-08-05T07:27:02.795Z,1.17
2022-08-05T07:30:24.296Z,1.17
2022-08-05T07:32:00.878Z,0.98
2022-08-05T07:33:36.464Z,0.98
2022-08-05T07:36:44.896Z,1.46
2022-08-05T07:38:04.916Z,1.66
2022-08-05T07:40:38.387Z,1.76
2022-08-05T07:43:55.184Z,1.76
2022-08-05T07:45:09.284Z,1.76
2022-08-05T07:46:48.552Z,1.86
2022-08-05T07:49:32.677Z,1.95
2022-08-05T07:50:55.940Z,1.95
2022-08-05T07:52:17.871Z,1.86
2022-08-05T07:54:16.071Z,1.76
2022-08-05T07:58:05.306Z,1.76
2022-08-05T07:59:53.611Z,1.76
2022-08-05T08:00:40.859Z,1.66
2022-08-05T08:02:03.684Z,1.66
2022-08-05T08:04:03.119Z,1.86
2022-08-05T08:06:08.133Z,1.95
2022-08-05T08:07:18.615Z,1.86
2022-08-05T08:08:37.444Z,2.34
2022-08-05T08:10:26.077Z,2.83
2022-08-05T08:12:14.623Z,2.54
2022-08-05T08:14:06.002Z,3.32
2022-08-05T08:17:08.249Z,1.95
2022-08-05T08:18:32.372Z,1.66
2022-08-05T08:21:28.939Z,1.76
2022-08-05T08:23:59.733Z,3.32
2022-08-05T08:26:13.542Z,2.34
2022-08-05T08:27:45.201Z,2.05
2022-08-05T08:31:06.631Z,2.93
2022-08-05T08:32:18.662Z,1.86
2022-08-05T08:33:44.023Z,1.86
2022-08-05T08:35:35.237Z,2.64
2022-08-05T08:37:33.743Z,2.05
2022-08-05T08:39:15.088Z,1.86
2022-08-05T08:41:09.436Z,1.95
2022-08-05T08:45:36.264Z,2.15
2022-08-05T08:46:45.031Z,2.54
2022-08-05T08:52:37.170Z,2.15
2022-08-05T08:53:50.117Z,2.15
2022-08-05T08:54:59.217Z,2.54
2022-08-05T08:57:58.355Z,2.15
2022-08-05T08:59:27.708Z,1.95
2022-08-05T09:00:47.260Z,2.15
2022-08-05T09:02:14.409Z,2.64
2022-08-05T09:03:27.510Z,2.05
2022-08-05T09:06:42.032Z,1.86
2022-08-05T09:08:21.064Z,1.56
2022-08-05T09:09:40.536Z,1.56
2022-08-05T09:12:03.357Z,1.76
2022-08-05T09:13:23.564Z,1.86
2022-08-05T09:15:29.067Z,1.95
2022-08-05T09:17:40.989Z,4.00
2022-08-05T09:18:52.440Z,4.00
2022-08-05T09:20:56.815Z,4.10
2022-08-05T09:24:15.817Z,2.73
2022-08-05T09:26:20.471Z,2.93
2022-08-05T09:28:21.017Z,3.52
2022-08-05T09:30:23.551Z,4.20
2022-08-05T09:33:05.011Z,2.34
2022-08-05T09:34:09.888Z,1.86
2022-08-05T09:35:58.704Z,1.46
2022-08-05T09:38:27.590Z,1.37
2022-08-05T09:40:13.438Z,0.98
2022-08-05T09:42:34.820Z,0.88
2022-08-05T09:43:49.394Z,0.88
2022-08-05T09:44:57.389Z,0.88
2022-08-05T09:48:06.896Z,1.27
2022-08-05T09:50:18.085Z,1.56
2022-08-05T09:51:48.779Z,1.76
2022-08-05T09:54:11.746Z,2.05
2022-08-05T09:56:24.601Z,4.00
2022-08-05T09:58:00.317Z,4.00
2022-08-05T09:59:48.587Z,4.20
2022-08-05T10:00:43.048Z,2.64
2022-08-05T10:02:09.942Z,3.91
2022-08-05T10:03:16.612Z,2.73
2022-08-05T10:05:26.798Z,4.10
2022-08-05T10:06:38.868Z,4.00
2022-08-05T10:09:27.799Z,4.00
2022-08-05T10:11:53.532Z,4.20
2022-08-05T10:13:15.658Z,4.30
2022-08-05T10:14:28.233Z,4.00
2022-08-05T10:16:13.259Z,4.49
2022-08-05T10:18:02.451Z,4.69
2022-08-05T10:19:15.545Z,5.18
2022-08-05T10:21:51.669Z,4.69
2022-08-05T10:23:33.908Z,3.61
2022-08-05T10:25:03.386Z,3.13
2022-08-05T10:27:07.589Z,3.03
2022-08-05T10:28:53.872Z,3.03
2022-08-05T10:33:35.381Z,3.03
2022-08-05T10:35:20.601Z,2.93
2022-08-05T10:36:43.108Z,3.03
2022-08-05T10:38:05.165Z,2.83
2022-08-05T10:40:57.842Z,3.13
2022-08-05T10:42:18.549Z,3.52
2022-08-05T10:43:36.632Z,2.93
2022-08-05T10:45:48.589Z,3.32
2022-08-05T10:47:00.077Z,2.93
2022-08-05T10:49:16.955Z,2.93
2022-08-05T10:52:16.258Z,2.73
2022-08-05T10:53:29.172Z,2.73
2022-08-05T10:55:16.035Z,2.64
2022-08-05T10:57:44.751Z,4.49
2022-08-05T11:01:06.150Z,4.49
2022-08-05T11:03:32.162Z,3.91
2022-08-05T11:04:42.940Z,4.00
2022-08-05T11:06:43.475Z,4.30
2022-08-05T11:09:02.280Z,4.39
2022-08-05T11:10:34.990Z,4.39
2022-08-05T11:12:28.771Z,3.81
2022-08-05T11:13:34.443Z,4.10
2022-08-05T11:16:06.995Z,4.00
2022-08-05T11:20:27.753Z,4.00
2022-08-05T11:21:54.294Z,4.69
2022-08-05T11:23:20.233Z,4.69
2022-08-05T11:26:55.513Z,4.79
2022-08-05T11:28:28.818Z,3.03
2022-08-05T11:29:42.987Z,2.73
2022-08-05T11:32:06.930Z,3.81
2022-08-05T11:33:43.935Z,3.13
2022-08-05T11:35:05.887Z,3.32
2022-08-05T11:38:58.272Z,3.03
2022-08-05T11:40:23.998Z,2.73
2022-08-05T11:42:46.272Z,2.64
2022-08-05T11:47:09.422Z,2.83
2022-08-05T11:48:30.016Z,3.03
2022-08-05T11:49:34.115Z,2.93
2022-08-05T11:51:44.332Z,3.32
2022-08-05T11:53:09.813Z,3.71
2022-08-05T11:54:14.047Z,5.27
2022-08-05T11:56:11.393Z,3.22
2022-08-05T11:58:17.670Z,4.49
2022-08-05T11:59:33.339Z,4.98
2022-08-05T12:00:58.252Z,4.79
2022-08-05T12:02:04.483Z,4.79
2022-08-05T12:03:13.554Z,4.88
2022-08-05T12:05:43.522Z,4.79
2022-08-05T12:06:59.965Z,4.88
2022-08-05T12:08:55.693Z,4.39
2022-08-05T12:11:28.094Z,2.83
2022-08-05T12:13:00.958Z,2.73
2022-08-05T12:14:24.246Z,3.81
2022-08-05T12:16:27.028Z,2.44
2022-08-05T12:18:39.123Z,2.15
2022-08-05T12:20:58.971Z,2.05
2022-08-05T12:22:51.999Z,1.86
2022-08-05T12:24:05.056Z,1.86
2022-08-05T12:25:14.224Z,1.86
2022-08-05T12:26:55.531Z,1.86
2022-08-05T12:28:36.706Z,1.95
2022-08-05T12:30:09.050Z,2.05
2022-08-05T12:32:22.479Z,2.54
2022-08-05T12:34:04.314Z,2.44
2022-08-05T12:35:21.536Z,2.34
2022-08-05T12:37:03.310Z,2.73
2022-08-05T12:38:16.621Z,2.54
2022-08-05T12:39:44.456Z,2.44
2022-08-05T12:42:03.635Z,2.93
2022-08-05T12:43:11.970Z,3.81
2022-08-05T12:44:48.722Z,3.32
2022-08-05T12:46:57.219Z,4.49
2022-08-05T12:48:45.503Z,3.81
2022-08-05T12:50:31.758Z,5.08
2022-08-05T12:53:03.521Z,3.71
2022-08-05T12:54:34.459Z,3.03
2022-08-05T12:55:44.311Z,2.83
2022-08-05T13:02:42.178Z,4.39
2022-08-05T13:04:03.445Z,2.93
2022-08-05T13:05:37.379Z,3.03
2022-08-05T13:08:08.762Z,4.39
2022-08-05T13:09:34.433Z,2.64
2022-08-05T13:10:56.519Z,2.64
2022-08-05T13:14:42.112Z,2.83
2022-08-05T13:16:08.629Z,2.73
2022-08-05T13:17:15.545Z,2.73
2022-08-05T13:19:09.989Z,2.15
2022-08-05T13:20:32.066Z,2.54
2022-08-05T13:21:58.063Z,1.86
2022-08-05T13:24:10.042Z,3.13
2022-08-05T13:26:22.889Z,2.73
2022-08-05T13:28:07.141Z,3.81
2022-08-05T13:30:59.721Z,3.91
2022-08-05T13:33:02.336Z,3.91
2022-08-05T13:34:57.668Z,3.52
2022-08-05T13:36:56.984Z,2.54
2022-08-05T13:38:38.461Z,2.54
2022-08-05T13:41:11.891Z,1.95
2022-08-05T13:43:01.254Z,2.64
2022-08-05T13:44:23.813Z,2.44
2022-08-05T13:45:48.637Z,2.54
2022-08-05T13:49:28.403Z,2.15
2022-08-05T13:50:46.688Z,2.15
2022-08-05T13:51:59.674Z,2.15
2022-08-05T13:54:21.219Z,2.34
2022-08-05T13:56:24.891Z,2.15
2022-08-05T13:57:56.180Z,2.64
2022-08-05T14:00:53.039Z,2.15
2022-08-05T14:02:40.977Z,2.05
2022-08-05T14:03:47.617Z,2.15
2022-08-05T14:06:37.856Z,2.15
2022-08-05T14:08:51.850Z,2.34
2022-08-05T14:10:09.627Z,2.54
2022-08-05T14:12:48.465Z,2.54
2022-08-05T14:14:02.555Z,3.03
2022-08-05T14:16:11.255Z,4.00
2022-08-05T14:18:05.370Z,3.13
2022-08-05T14:19:16.139Z,2.83
2022-08-05T14:20:38.715Z,2.73
2022-08-05T14:23:33.693Z,2.64
2022-08-05T14:24:45.718Z,2.93
2022-08-05T14:26:06.503Z,3.52
2022-08-05T14:28:58.088Z,3.32
2022-08-05T14:30:20.042Z,3.13
2022-08-05T14:32:34.000Z,3.22
2022-08-05T14:34:41.161Z,3.13
2022-08-05T14:36:14.146Z,3.13
2022-08-05T14:37:19.718Z,3.13
2022-08-05T14:39:11.031Z,3.52
2022-08-05T14:40:29.803Z,3.52
2022-08-05T14:42:02.365Z,2.05
2022-08-05T14:44:47.149Z,1.95
2022-08-05T14:45:53.710Z,1.86
2022-08-05T14:47:01.856Z,1.86
2022-08-05T14:50:31.101Z,2.05
2022-08-05T14:51:43.470Z,1.95
2022-08-05T14:53:24.854Z,1.95
2022-08-05T14:56:22.717Z,1.86
2022-08-05T14:58:17.029Z,1.86
2022-08-05T14:59:29.571Z,1.95
2022-08-05T15:01:49.164Z,1.95
2022-08-05T15:02:58.149Z,2.93
2022-08-05T15:04:11.491Z,2.73
2022-08-05T15:06:39.018Z,2.83
2022-08-05T15:10:03.296Z,2.54
2022-08-05T15:11:12.127Z,1.95
2022-08-05T15:13:56.273Z,1.66
2022-08-05T15:16:01.923Z,1.66
2022-08-05T15:17:44.296Z,1.66
2022-08-05T15:19:48.830Z,1.66
2022-08-05T15:20:53.282Z,1.56
2022-08-05T15:22:05.946Z,1.86
2022-08-05T15:23:45.114Z,1.86
2022-08-05T15:24:56.846Z,2.34
2022-08-05T15:26:38.019Z,1.66
2022-08-05T15:28:33.557Z,1.56
2022-08-05T15:29:47.865Z,1.66
2022-08-05T15:30:58.829Z,1.76
2022-08-05T15:32:51.790Z,2.05
2022-08-05T15:34:56.190Z,2.05
2022-08-05T15:36:17.316Z,2.05
2022-08-05T15:41:55.240Z,1.86
2022-08-05T15:43:54.631Z,1.27
2022-08-05T15:45:01.000Z,1.27
2022-08-05T15:47:07.985Z,1.27
2022-08-05T15:48:20.239Z,1.27
2022-08-05T15:50:21.676Z,1.37
2022-08-05T15:53:26.921Z,1.56
2022-08-05T15:55:02.172Z,1.46
2022-08-05T15:56:41.858Z,1.66
2022-08-05T15:58:23.230Z,1.46
2022-08-05T15:59:40.438Z,1.46
2022-08-05T16:01:52.662Z,1.37
2022-08-05T16:02:59.118Z,1.27
2022-08-05T16:04:16.078Z,1.27
2022-08-05T16:06:19.623Z,0.98
2022-08-05T16:07:29.631Z,0.98
2022-08-05T16:08:42.923Z,0.98
2022-08-05T16:10:31.027Z,0.88
2022-08-05T16:12:05.041Z,0.98
2022-08-05T16:13:10.687Z,0.98
2022-08-05T16:14:50.417Z,1.66
2022-08-05T16:16:04.509Z,1.66
2022-08-05T16:17:09.781Z,1.76
2022-08-05T16:19:25.878Z,1.27
2022-08-05T16:21:10.620Z,1.27
2022-08-05T16:22:47.302Z,1.56
2022-08-05T16:25:15.482Z,1.17
2022-08-05T16:26:31.728Z,1.27
2022-08-05T16:28:21.321Z,1.46
2022-08-05T16:30:29.409Z,1.37
2022-08-05T16:32:03.056Z,1.37
2022-08-05T16:33:09.720Z,1.27
2022-08-05T16:35:02.206Z,1.37
2022-08-05T16:36:20.173Z,1.37
2022-08-05T16:38:42.678Z,1.27
2022-08-05T16:42:40.936Z,1.17
2022-08-05T16:43:46.409Z,0.88
2022-08-05T16:46:02.791Z,0.98
2022-08-05T16:48:39.304Z,0.98
2022-08-05T16:49:46.735Z,0.98
2022-08-05T16:50:50.137Z,0.98
2022-08-05T16:52:38.301Z,0.88
2022-08-05T16:54:44.635Z,0.98
2022-08-05T16:56:12.294Z,0.88
2022-08-05T16:58:31.910Z,0.88
2022-08-05T17:01:00.736Z,0.98
2022-08-05T17:02:26.928Z,0.98
2022-08-05T17:03:44.665Z,0.98
2022-08-05T17:05:25.960Z,0.88
2022-08-05T17:06:36.134Z,0.88
2022-08-05T17:08:52.817Z,0.88
2022-08-05T17:10:36.136Z,0.88
2022-08-05T17:12:11.224Z,0.88
2022-08-05T17:13:43.500Z,0.88
2022-08-05T17:16:42.474Z,0.88
2022-08-05T17:18:26.400Z,0.78
2022-08-05T17:19:32.507Z,0.88
2022-08-05T17:21:21.351Z,0.78
2022-08-05T17:22:39.482Z,0.88
2022-08-05T17:25:39.987Z,0.78
2022-08-05T17:27:21.860Z,0.68
2022-08-05T17:28:28.946Z,0.68
2022-08-05T17:30:12.087Z,0.68
2022-08-05T17:32:42.061Z,0.59
2022-08-05T17:34:03.336Z,0.68
2022-08-05T17:35:10.075Z,0.68
2022-08-05T17:38:23.222Z,0.59
2022-08-05T17:40:01.892Z,0.59
2022-08-05T17:42:16.502Z,0.59
2022-08-05T17:44:32.342Z,0.59
2022-08-05T17:46:05.734Z,0.49
2022-08-05T17:47:17.358Z,0.59
2022-08-05T17:49:09.279Z,0.39
2022-08-05T17:50:44.982Z,0.39
2022-08-05T17:52:06.799Z,0.39
2022-08-05T17:54:13.605Z,0.39
2022-08-05T17:55:21.298Z,0.39
2022-08-05T17:56:34.104Z,0.39
2022-08-05T17:58:37.899Z,0.39
2022-08-05T17:59:52.812Z,0.29
2022-08-05T18:01:02.685Z,0.39
2022-08-05T18:02:28.897Z,0.39
2022-08-05T18:04:32.806Z,0.39
2022-08-05T18:06:40.667Z,0.29
2022-08-05T18:08:09.108Z,0.29
2022-08-05T18:09:28.415Z,0.29
2022-08-05T18:12:04.533Z,0.29
2022-08-05T18:13:18.538Z,0.29
2022-08-05T18:14:31.963Z,0.29
2022-08-05T18:16:20.457Z,0.29
2022-08-05T18:18:22.769Z,0.29
2022-08-05T18:19:34.262Z,0.29
2022-08-05T18:22:09.670Z,0.29
2022-08-05T18:23:53.727Z,0.29
2022-08-05T18:24:57.115Z,0.29
2022-08-05T18:26:47.280Z,0.29
2022-08-05T18:28:05.085Z,0.00
2022-08-05T18:29:16.714Z,0.00
2022-08-05T18:31:08.925Z,0.29
2022-08-05T18:32:33.699Z,0.00
2022-08-05T18:34:12.223Z,0.00
2022-08-05T18:36:39.548Z,0.00
2022-08-05T18:38:06.318Z,0.00
2022-08-05T18:40:33.618Z,0.00
2022-08-05T18:43:54.769Z,0.00
2022-08-05T18:45:21.419Z,0.00
2022-08-05T18:46:34.894Z,0.00
2022-08-05T18:48:47.701Z,0.00
2022-08-05T18:50:51.192Z,0.00
2022-08-05T18:52:57.386Z,0.00
2022-08-05T18:55:00.034Z,0.00
2022-08-05T18:56:07.897Z,0.00
2022-08-05T18:57:43.561Z,0.00
2022-08-05T19:00:53.898Z,0.00
2022-08-05T19:02:39.169Z,0.00
2022-08-05T19:04:30.116Z,0.00
2022-08-05T19:07:25.571Z,0.00
2022-08-05T19:08:46.447Z,0.00
2022-08-05T19:10:06.101Z,0.00
2022-08-05T19:12:30.679Z,0.00
2022-08-05T19:14:00.664Z,0.00
2022-08-05T19:16:36.945Z,0.00
2022-08-05T19:18:45.829Z,0.00
2022-08-05T19:20:01.154Z,0.00
2022-08-05T19:21:12.450Z,0.00
2022-08-05T19:22:57.254Z,0.00
2022-08-05T19:25:22.131Z,0.00
2022-08-05T19:26:36.706Z,0.00
2022-08-05T19:28:35.913Z,0.00
2022-08-05T19:29:55.173Z,0.00
2022-08-05T19:31:06.810Z,0.00
2022-08-05T19:33:04.714Z,0.00
2022-08-05T19:34:24.330Z,0.00
2022-08-05T19:36:08.851Z,0.00
2022-08-05T19:38:37.957Z,0.00
2022-08-05T19:40:03.121Z,0.00
2022-08-05T19:41:22.030Z,0.00
2022-08-05T19:44:50.433Z,0.00
2022-08-05T19:46:36.145Z,0.00
2022-08-05T19:47:49.891Z,0.00
2022-08-05T19:49:39.446Z,0.00
2022-08-05T19:50:46.621Z,0.00
2022-08-05T19:53:16.469Z,0.00
2022-08-05T19:56:57.080Z,0.00
2022-08-05T20:00:43.967Z,0.00
2022-08-05T20:01:58.108Z,0.00
2022-08-05T20:03:08.500Z,0.00
2022-08-05T20:05:09.735Z,0.00
2022-08-05T20:06:52.341Z,0.00
2022-08-05T20:08:24.450Z,0.00
2022-08-05T20:10:35.599Z,0.00
2022-08-05T20:12:03.205Z,0.00
2022-08-05T20:13:15.522Z,0.00
2022-08-05T20:16:04.165Z,0.00
2022-08-05T20:17:07.790Z,0.00
2022-08-05T20:18:33.332Z,0.00
2022-08-05T20:20:20.937Z,0.00
2022-08-05T20:21:32.563Z,0.00
2022-08-05T20:22:38.904Z,0.00
2022-08-05T20:24:28.768Z,0.00
2022-08-05T20:25:39.873Z,0.00
2022-08-05T20:26:48.401Z,0.00
2022-08-05T20:28:47.246Z,0.00
2022-08-05T20:30:10.124Z,0.00
2022-08-05T20:31:13.105Z,0.00
2022-08-05T20:33:13.745Z,0.00
2022-08-05T20:34:20.742Z,0.00
2022-08-05T20:35:25.942Z,0.00
2022-08-05T20:37:17.898Z,0.00
2022-08-05T20:39:25.052Z,0.00
2022-08-05T20:40:50.350Z,0.00
2022-08-05T20:43:05.783Z,0.00
2022-08-05T20:44:49.684Z,0.00
2022-08-05T20:46:37.520Z,0.00
2022-08-05T20:48:18.087Z,0.00
2022-08-05T20:49:33.235Z,0.00
2022-08-05T20:50:53.744Z,0.00
2022-08-05T20:52:32.561Z,0.00
2022-08-05T20:54:19.946Z,0.00
2022-08-05T20:56:54.673Z,0.00
2022-08-05T20:59:26.637Z,0.00
2022-08-05T21:01:20.492Z,0.00
2022-08-05T21:03:03.511Z,0.00
2022-08-05T21:04:17.981Z,0.00
2022-08-05T21:06:45.214Z,0.00
2022-08-05T21:08:17.172Z,0.00
2022-08-05T21:09:25.705Z,0.00
2022-08-05T21:12:22.959Z,0.00
2022-08-05T21:14:13.511Z,0.00
2022-08-05T21:15:18.464Z,0.00
2022-08-05T21:17:05.383Z,0.00
2022-08-05T21:18:16.813Z,0.00
2022-08-05T21:19:29.111Z,0.00
2022-08-05T21:22:02.515Z,0.00
2022-08-05T21:23:08.760Z,0.00
2022-08-05T21:24:19.506Z,0.00
2022-08-05T21:26:14.396Z,0.00
2022-08-05T21:27:38.803Z,0.00
2022-08-05T21:29:09.948Z,0.00
2022-08-05T21:31:02.556Z,0.00
2022-08-05T21:32:17.165Z,0.00
2022-08-05T21:33:53.771Z,0.00
2022-08-05T21:36:27.577Z,0.00
2022-08-05T21:37:34.946Z,0.00
2022-08-05T21:38:52.342Z,0.00
2022-08-05T21:40:47.127Z,0.00
2022-08-05T21:42:44.871Z,0.00
2022-08-05T21:44:32.438Z,0.00
2022-08-05T21:46:34.854Z,0.00
2022-08-05T21:48:31.888Z,0.00
2022-08-05T21:50:24.255Z,0.00
2022-08-05T21:53:27.103Z,0.00
2022-08-05T21:54:42.935Z,0.00
2022-08-05T21:56:51.330Z,0.00
2022-08-05T22:00:42.008Z,0.00
2022-08-05T22:02:01.451Z,0.00
2022-08-05T22:03:05.999Z,0.00
2022-08-05T22:05:21.401Z,0.00
2022-08-05T22:06:57.057Z,0.00
2022-08-05T22:08:48.353Z,0.00
2022-08-05T22:11:01.483Z,0.00
2022-08-05T22:12:16.390Z,0.00
2022-08-05T22:14:54.431Z,0.00
2022-08-05T22:18:19.612Z,0.00
2022-08-05T22:20:38.978Z,0.00
2022-08-05T22:21:55.005Z,0.00
2022-08-05T22:25:18.194Z,0.00
2022-08-05T22:26:49.860Z,0.00
2022-08-05T22:28:44.314Z,0.00
2022-08-05T22:31:05.179Z,0.00
2022-08-05T22:32:29.874Z,0.00
2022-08-05T22:34:34.232Z,0.00
2022-08-05T22:36:24.047Z,0.00
2022-08-05T22:37:58.145Z,0.00
2022-08-05T22:39:15.466Z,0.00
2022-08-05T22:41:15.127Z,0.00
2022-08-05T22:43:04.025Z,0.00
2022-08-05T22:44:08.536Z,0.00
2022-08-05T22:45:57.488Z,0.00
2022-08-05T22:47:12.180Z,0.00
2022-08-05T22:48:35.276Z,0.00
2022-08-05T22:51:02.107Z,0.00
2022-08-05T22:52:57.106Z,0.00
2022-08-05T22:54:07.429Z,0.00
2022-08-05T22:56:29.682Z,0.00
2022-08-05T22:57:42.351Z,0.00
2022-08-05T22:59:44.032Z,0.00
2022-08-05T23:00:50.908Z,0.00
2022-08-05T23:02:52.808Z,0.00
2022-08-05T23:04:28.308Z,0.00
2022-08-05T23:06:15.901Z,0.00
2022-08-05T23:07:27.864Z,0.00
2022-08-05T23:08:34.107Z,0.00
2022-08-05T23:11:21.291Z,0.00
2022-08-05T23:12:29.561Z,0.00
2022-08-05T23:13:40.314Z,0.00
2022-08-05T23:15:42.185Z,0.00
2022-08-05T23:17:12.230Z,0.00
2022-08-05T23:18:44.152Z,0.00
2022-08-05T23:20:49.175Z,0.00
2022-08-05T23:22:13.139Z,0.00
2022-08-05T23:23:35.728Z,0.00
2022-08-05T23:26:00.256Z,0.00
2022-08-05T23:27:07.255Z,0.00
2022-08-05T23:28:36.549Z,0.00
2022-08-05T23:30:53.387Z,0.00
2022-08-05T23:32:02.159Z,0.00
2022-08-05T23:34:04.518Z,0.00
2022-08-05T23:35:51.599Z,0.00
2022-08-05T23:37:12.399Z,0.00
2022-08-05T23:38:24.189Z,0.00
2022-08-05T23:40:40.093Z,0.00
2022-08-05T23:42:02.354Z,0.00
2022-08-05T23:44:14.201Z,0.00
2022-08-05T23:46:04.289Z,0.00
2022-08-05T23:47:21.436Z,0.00
2022-08-05T23:48:38.164Z,0.00
2022-08-05T23:50:50.803Z,0.00
2022-08-05T23:52:05.712Z,0.00
2022-08-05T23:54:06.921Z,0.00
2022-08-05T23:56:07.790Z,0.00
2022-08-05T23:57:22.312Z,0.00
2022-08-05T23:58:51.793Z,0.00
